sensor_id;sensor_type;location;lat;lon;timestamp;temperature;humidity
57652;DHT22;43480;53.116;6.734;2024-03-02T00:00:07;7.10;99.90
57652;DHT22;43480;53.116;6.734;2024-03-02T00:02:44;7.10;99.90
57652;DHT22;43480;53.116;6.734;2024-03-02T00:05:18;7.10;99.90
57652;DHT22;43480;53.116;6.734;2024-03-02T00:07:47;7.10;99.90
57652;DHT22;43480;53.116;6.734;2024-03-02T00:10:16;7.10;99.90
57652;DHT22;43480;53.116;6.734;2024-03-02T00:12:47;7.10;99.90
57652;DHT22;43480;53.116;6.734;2024-03-02T00:17:57;7.10;99.90
57652;DHT22;43480;53.116;6.734;2024-03-02T00:20:24;7.10;99.90
57652;DHT22;43480;53.116;6.734;2024-03-02T00:23:02;7.10;99.90
57652;DHT22;43480;53.116;6.734;2024-03-02T00:25:41;7.10;99.90
57652;DHT22;43480;53.116;6.734;2024-03-02T00:28:21;7.10;99.90
57652;DHT22;43480;53.116;6.734;2024-03-02T00:30:57;7.10;99.90
57652;DHT22;43480;53.116;6.734;2024-03-02T00:33:23;7.10;99.90
57652;DHT22;43480;53.116;6.734;2024-03-02T00:35:50;7.10;99.90
57652;DHT22;43480;53.116;6.734;2024-03-02T00:38:16;7.10;99.90
57652;DHT22;43480;53.116;6.734;2024-03-02T00:40:43;7.00;99.90
57652;DHT22;43480;53.116;6.734;2024-03-02T00:43:30;7.00;99.90
57652;DHT22;43480;53.116;6.734;2024-03-02T00:46:03;7.00;99.90
57652;DHT22;43480;53.116;6.734;2024-03-02T00:48:29;7.00;99.90
57652;DHT22;43480;53.116;6.734;2024-03-02T00:50:57;7.00;99.90
57652;DHT22;43480;53.116;6.734;2024-03-02T00:53:24;7.00;99.90
57652;DHT22;43480;53.116;6.734;2024-03-02T00:55:52;7.10;99.90
57652;DHT22;43480;53.116;6.734;2024-03-02T00:58:17;7.10;99.90
57652;DHT22;43480;53.116;6.734;2024-03-02T01:00:43;7.10;99.90
57652;DHT22;43480;53.116;6.734;2024-03-02T01:03:09;7.10;99.90
57652;DHT22;43480;53.116;6.734;2024-03-02T01:05:36;7.10;99.90
57652;DHT22;43480;53.116;6.734;2024-03-02T01:08:02;7.10;99.90
57652;DHT22;43480;53.116;6.734;2024-03-02T01:10:28;7.10;99.90
57652;DHT22;43480;53.116;6.734;2024-03-02T01:12:53;7.10;99.90
57652;DHT22;43480;53.116;6.734;2024-03-02T01:15:19;7.10;99.90
57652;DHT22;43480;53.116;6.734;2024-03-02T01:17:45;7.10;99.90
57652;DHT22;43480;53.116;6.734;2024-03-02T01:20:11;7.10;99.90
57652;DHT22;43480;53.116;6.734;2024-03-02T01:22:36;7.20;99.90
57652;DHT22;43480;53.116;6.734;2024-03-02T01:25:03;7.20;99.90
57652;DHT22;43480;53.116;6.734;2024-03-02T01:27:29;7.20;99.90
57652;DHT22;43480;53.116;6.734;2024-03-02T01:29:54;7.20;99.90
57652;DHT22;43480;53.116;6.734;2024-03-02T01:32:20;7.20;99.90
57652;DHT22;43480;53.116;6.734;2024-03-02T01:34:46;7.30;99.90
57652;DHT22;43480;53.116;6.734;2024-03-02T01:37:11;7.30;99.90
57652;DHT22;43480;53.116;6.734;2024-03-02T01:39:37;7.30;99.90
57652;DHT22;43480;53.116;6.734;2024-03-02T01:42:03;7.40;99.90
57652;DHT22;43480;53.116;6.734;2024-03-02T01:44:29;7.40;99.90
57652;DHT22;43480;53.116;6.734;2024-03-02T01:46:54;7.40;99.90
57652;DHT22;43480;53.116;6.734;2024-03-02T01:49:20;7.40;99.90
57652;DHT22;43480;53.116;6.734;2024-03-02T01:51:46;7.40;99.90
57652;DHT22;43480;53.116;6.734;2024-03-02T01:54:11;7.40;99.90
57652;DHT22;43480;53.116;6.734;2024-03-02T01:56:37;7.50;99.90
57652;DHT22;43480;53.116;6.734;2024-03-02T01:59:03;7.40;99.90
57652;DHT22;43480;53.116;6.734;2024-03-02T02:01:29;7.40;99.90
57652;DHT22;43480;53.116;6.734;2024-03-02T02:03:54;7.40;99.90
57652;DHT22;43480;53.116;6.734;2024-03-02T02:06:21;7.40;99.90
57652;DHT22;43480;53.116;6.734;2024-03-02T02:08:47;7.40;99.90
57652;DHT22;43480;53.116;6.734;2024-03-02T02:11:16;7.40;99.90
57652;DHT22;43480;53.116;6.734;2024-03-02T02:13:42;7.40;99.90
57652;DHT22;43480;53.116;6.734;2024-03-02T02:16:08;7.40;99.90
57652;DHT22;43480;53.116;6.734;2024-03-02T02:18:34;7.40;99.90
57652;DHT22;43480;53.116;6.734;2024-03-02T02:21:01;7.30;99.90
57652;DHT22;43480;53.116;6.734;2024-03-02T02:23:27;7.30;99.90
57652;DHT22;43480;53.116;6.734;2024-03-02T02:25:53;7.30;99.90
57652;DHT22;43480;53.116;6.734;2024-03-02T02:28:20;7.30;99.90
57652;DHT22;43480;53.116;6.734;2024-03-02T02:30:45;7.40;99.90
57652;DHT22;43480;53.116;6.734;2024-03-02T02:33:11;7.40;99.90
57652;DHT22;43480;53.116;6.734;2024-03-02T02:35:37;7.40;99.90
57652;DHT22;43480;53.116;6.734;2024-03-02T02:38:03;7.40;99.90
57652;DHT22;43480;53.116;6.734;2024-03-02T02:40:29;7.40;99.90
57652;DHT22;43480;53.116;6.734;2024-03-02T02:42:56;7.50;99.90
57652;DHT22;43480;53.116;6.734;2024-03-02T02:45:22;7.50;99.90
57652;DHT22;43480;53.116;6.734;2024-03-02T02:47:48;7.50;99.90
57652;DHT22;43480;53.116;6.734;2024-03-02T02:50:14;7.50;99.90
57652;DHT22;43480;53.116;6.734;2024-03-02T02:52:41;7.50;99.90
57652;DHT22;43480;53.116;6.734;2024-03-02T02:55:08;7.60;99.90
57652;DHT22;43480;53.116;6.734;2024-03-02T02:57:35;7.60;99.90
57652;DHT22;43480;53.116;6.734;2024-03-02T03:00:13;7.60;99.90
57652;DHT22;43480;53.116;6.734;2024-03-02T03:02:45;7.60;99.90
57652;DHT22;43480;53.116;6.734;2024-03-02T03:05:13;7.70;99.90
57652;DHT22;43480;53.116;6.734;2024-03-02T03:07:40;7.70;99.90
57652;DHT22;43480;53.116;6.734;2024-03-02T03:10:07;7.70;99.90
57652;DHT22;43480;53.116;6.734;2024-03-02T03:12:33;7.70;99.90
57652;DHT22;43480;53.116;6.734;2024-03-02T03:14:59;7.70;99.90
57652;DHT22;43480;53.116;6.734;2024-03-02T03:17:25;7.80;99.90
57652;DHT22;43480;53.116;6.734;2024-03-02T03:19:51;7.80;99.90
57652;DHT22;43480;53.116;6.734;2024-03-02T03:22:17;7.80;99.90
57652;DHT22;43480;53.116;6.734;2024-03-02T03:24:43;7.70;99.90
57652;DHT22;43480;53.116;6.734;2024-03-02T03:27:09;7.80;99.90
57652;DHT22;43480;53.116;6.734;2024-03-02T03:29:39;7.80;99.90
57652;DHT22;43480;53.116;6.734;2024-03-02T03:32:05;7.80;99.90
57652;DHT22;43480;53.116;6.734;2024-03-02T03:34:35;7.80;99.90
57652;DHT22;43480;53.116;6.734;2024-03-02T03:37:00;7.80;99.90
57652;DHT22;43480;53.116;6.734;2024-03-02T03:39:26;7.80;99.90
57652;DHT22;43480;53.116;6.734;2024-03-02T03:41:52;7.80;99.90
57652;DHT22;43480;53.116;6.734;2024-03-02T03:44:18;7.80;99.90
57652;DHT22;43480;53.116;6.734;2024-03-02T03:46:43;7.80;99.90
57652;DHT22;43480;53.116;6.734;2024-03-02T03:49:09;7.80;99.90
57652;DHT22;43480;53.116;6.734;2024-03-02T03:51:34;7.90;99.90
57652;DHT22;43480;53.116;6.734;2024-03-02T03:54:01;7.90;99.90
57652;DHT22;43480;53.116;6.734;2024-03-02T03:56:26;7.90;99.90
57652;DHT22;43480;53.116;6.734;2024-03-02T03:58:52;7.90;99.90
57652;DHT22;43480;53.116;6.734;2024-03-02T04:01:18;7.90;99.90
57652;DHT22;43480;53.116;6.734;2024-03-02T04:03:44;7.90;99.90
57652;DHT22;43480;53.116;6.734;2024-03-02T04:06:10;7.80;99.90
57652;DHT22;43480;53.116;6.734;2024-03-02T04:08:36;7.80;99.90
57652;DHT22;43480;53.116;6.734;2024-03-02T04:11:01;7.70;99.90
57652;DHT22;43480;53.116;6.734;2024-03-02T04:13:28;7.60;99.90
57652;DHT22;43480;53.116;6.734;2024-03-02T04:15:54;7.60;99.90
57652;DHT22;43480;53.116;6.734;2024-03-02T04:18:19;7.60;99.90
57652;DHT22;43480;53.116;6.734;2024-03-02T04:20:45;7.60;99.90
57652;DHT22;43480;53.116;6.734;2024-03-02T04:23:10;7.50;99.90
57652;DHT22;43480;53.116;6.734;2024-03-02T04:25:36;7.50;99.90
57652;DHT22;43480;53.116;6.734;2024-03-02T04:28:02;7.50;99.90
57652;DHT22;43480;53.116;6.734;2024-03-02T04:30:27;7.50;99.90
57652;DHT22;43480;53.116;6.734;2024-03-02T04:32:53;7.50;99.90
57652;DHT22;43480;53.116;6.734;2024-03-02T04:35:19;7.50;99.90
57652;DHT22;43480;53.116;6.734;2024-03-02T04:37:44;7.50;99.90
57652;DHT22;43480;53.116;6.734;2024-03-02T04:40:10;7.50;99.90
57652;DHT22;43480;53.116;6.734;2024-03-02T04:42:36;7.50;99.90
57652;DHT22;43480;53.116;6.734;2024-03-02T04:45:02;7.50;99.90
57652;DHT22;43480;53.116;6.734;2024-03-02T04:47:28;7.50;99.90
57652;DHT22;43480;53.116;6.734;2024-03-02T04:49:54;7.50;99.90
57652;DHT22;43480;53.116;6.734;2024-03-02T04:52:20;7.60;99.90
57652;DHT22;43480;53.116;6.734;2024-03-02T04:54:45;7.50;99.90
57652;DHT22;43480;53.116;6.734;2024-03-02T04:57:30;7.50;99.90
57652;DHT22;43480;53.116;6.734;2024-03-02T04:59:55;7.60;99.90
57652;DHT22;43480;53.116;6.734;2024-03-02T05:02:21;7.60;99.90
57652;DHT22;43480;53.116;6.734;2024-03-02T05:04:46;7.60;99.90
57652;DHT22;43480;53.116;6.734;2024-03-02T05:07:14;7.50;99.90
57652;DHT22;43480;53.116;6.734;2024-03-02T05:09:40;7.50;99.90
57652;DHT22;43480;53.116;6.734;2024-03-02T05:12:05;7.50;99.90
57652;DHT22;43480;53.116;6.734;2024-03-02T05:14:37;7.50;99.90
57652;DHT22;43480;53.116;6.734;2024-03-02T05:17:04;7.50;99.90
57652;DHT22;43480;53.116;6.734;2024-03-02T05:19:29;7.50;99.90
57652;DHT22;43480;53.116;6.734;2024-03-02T05:21:55;7.50;99.90
57652;DHT22;43480;53.116;6.734;2024-03-02T05:24:21;7.50;99.90
57652;DHT22;43480;53.116;6.734;2024-03-02T05:26:46;7.50;99.90
57652;DHT22;43480;53.116;6.734;2024-03-02T05:29:12;7.50;99.90
57652;DHT22;43480;53.116;6.734;2024-03-02T05:31:37;7.60;99.90
57652;DHT22;43480;53.116;6.734;2024-03-02T05:34:03;7.60;99.90
57652;DHT22;43480;53.116;6.734;2024-03-02T05:36:31;7.50;99.90
57652;DHT22;43480;53.116;6.734;2024-03-02T05:38:57;7.50;99.90
57652;DHT22;43480;53.116;6.734;2024-03-02T05:41:22;7.40;99.90
57652;DHT22;43480;53.116;6.734;2024-03-02T05:43:48;7.40;99.90
57652;DHT22;43480;53.116;6.734;2024-03-02T05:46:15;7.40;99.90
57652;DHT22;43480;53.116;6.734;2024-03-02T05:48:40;7.40;99.90
57652;DHT22;43480;53.116;6.734;2024-03-02T05:51:06;7.40;99.90
57652;DHT22;43480;53.116;6.734;2024-03-02T05:53:32;7.40;99.90
57652;DHT22;43480;53.116;6.734;2024-03-02T05:55:57;7.40;99.90
57652;DHT22;43480;53.116;6.734;2024-03-02T05:58:23;7.40;99.90
57652;DHT22;43480;53.116;6.734;2024-03-02T06:01:11;7.40;99.90
57652;DHT22;43480;53.116;6.734;2024-03-02T06:03:37;7.40;99.90
57652;DHT22;43480;53.116;6.734;2024-03-02T06:06:03;7.40;99.90
57652;DHT22;43480;53.116;6.734;2024-03-02T06:08:28;7.40;99.90
57652;DHT22;43480;53.116;6.734;2024-03-02T06:10:54;7.40;99.90
57652;DHT22;43480;53.116;6.734;2024-03-02T06:13:21;7.40;99.90
57652;DHT22;43480;53.116;6.734;2024-03-02T06:15:47;7.40;99.90
57652;DHT22;43480;53.116;6.734;2024-03-02T06:18:13;7.40;99.90
57652;DHT22;43480;53.116;6.734;2024-03-02T06:20:38;7.40;99.90
57652;DHT22;43480;53.116;6.734;2024-03-02T06:23:04;7.30;99.90
57652;DHT22;43480;53.116;6.734;2024-03-02T06:25:30;7.30;99.90
57652;DHT22;43480;53.116;6.734;2024-03-02T06:27:56;7.30;99.90
57652;DHT22;43480;53.116;6.734;2024-03-02T06:30:22;7.20;99.90
57652;DHT22;43480;53.116;6.734;2024-03-02T06:32:47;7.10;99.90
57652;DHT22;43480;53.116;6.734;2024-03-02T06:35:13;7.00;99.90
57652;DHT22;43480;53.116;6.734;2024-03-02T06:37:39;7.00;99.90
57652;DHT22;43480;53.116;6.734;2024-03-02T06:40:08;6.90;99.90
57652;DHT22;43480;53.116;6.734;2024-03-02T06:42:34;6.80;99.90
57652;DHT22;43480;53.116;6.734;2024-03-02T06:45:00;6.70;99.90
57652;DHT22;43480;53.116;6.734;2024-03-02T06:47:26;6.70;99.90
57652;DHT22;43480;53.116;6.734;2024-03-02T06:49:52;6.60;99.90
57652;DHT22;43480;53.116;6.734;2024-03-02T06:52:18;6.60;99.90
57652;DHT22;43480;53.116;6.734;2024-03-02T06:54:44;6.50;99.90
57652;DHT22;43480;53.116;6.734;2024-03-02T06:57:09;6.50;99.90
57652;DHT22;43480;53.116;6.734;2024-03-02T06:59:35;6.40;99.90
57652;DHT22;43480;53.116;6.734;2024-03-02T07:02:01;6.40;99.90
57652;DHT22;43480;53.116;6.734;2024-03-02T07:04:27;6.40;99.90
57652;DHT22;43480;53.116;6.734;2024-03-02T07:06:53;6.30;99.90
57652;DHT22;43480;53.116;6.734;2024-03-02T07:09:18;6.30;99.90
57652;DHT22;43480;53.116;6.734;2024-03-02T07:11:48;6.20;99.90
57652;DHT22;43480;53.116;6.734;2024-03-02T07:14:14;6.30;99.90
57652;DHT22;43480;53.116;6.734;2024-03-02T07:16:40;6.30;99.90
57652;DHT22;43480;53.116;6.734;2024-03-02T07:19:06;6.40;99.90
57652;DHT22;43480;53.116;6.734;2024-03-02T07:21:32;6.50;99.90
57652;DHT22;43480;53.116;6.734;2024-03-02T07:23:58;6.60;99.90
57652;DHT22;43480;53.116;6.734;2024-03-02T07:26:25;6.70;99.90
57652;DHT22;43480;53.116;6.734;2024-03-02T07:28:51;6.80;99.90
57652;DHT22;43480;53.116;6.734;2024-03-02T07:31:17;7.00;99.90
57652;DHT22;43480;53.116;6.734;2024-03-02T07:33:46;7.00;99.90
57652;DHT22;43480;53.116;6.734;2024-03-02T07:36:12;7.10;99.90
57652;DHT22;43480;53.116;6.734;2024-03-02T07:38:38;7.20;99.90
57652;DHT22;43480;53.116;6.734;2024-03-02T07:41:04;7.30;99.90
57652;DHT22;43480;53.116;6.734;2024-03-02T07:43:30;7.30;99.90
57652;DHT22;43480;53.116;6.734;2024-03-02T07:45:58;7.30;99.90
57652;DHT22;43480;53.116;6.734;2024-03-02T07:48:24;7.30;99.90
57652;DHT22;43480;53.116;6.734;2024-03-02T07:50:50;7.30;99.90
57652;DHT22;43480;53.116;6.734;2024-03-02T07:53:16;7.20;99.90
57652;DHT22;43480;53.116;6.734;2024-03-02T07:55:42;7.30;99.90
57652;DHT22;43480;53.116;6.734;2024-03-02T07:58:08;7.30;99.90
57652;DHT22;43480;53.116;6.734;2024-03-02T08:00:34;7.30;99.90
57652;DHT22;43480;53.116;6.734;2024-03-02T08:03:01;7.30;99.90
57652;DHT22;43480;53.116;6.734;2024-03-02T08:05:26;7.30;99.90
57652;DHT22;43480;53.116;6.734;2024-03-02T08:07:53;7.30;99.90
57652;DHT22;43480;53.116;6.734;2024-03-02T08:10:19;7.30;99.90
57652;DHT22;43480;53.116;6.734;2024-03-02T08:12:45;7.20;99.90
57652;DHT22;43480;53.116;6.734;2024-03-02T08:15:11;7.20;99.90
57652;DHT22;43480;53.116;6.734;2024-03-02T08:17:39;7.20;99.90
57652;DHT22;43480;53.116;6.734;2024-03-02T08:20:11;7.20;99.90
57652;DHT22;43480;53.116;6.734;2024-03-02T08:22:37;7.20;99.90
57652;DHT22;43480;53.116;6.734;2024-03-02T08:25:03;7.20;99.90
57652;DHT22;43480;53.116;6.734;2024-03-02T08:27:29;7.30;99.90
57652;DHT22;43480;53.116;6.734;2024-03-02T08:29:55;7.20;99.90
57652;DHT22;43480;53.116;6.734;2024-03-02T08:32:20;7.30;99.90
57652;DHT22;43480;53.116;6.734;2024-03-02T08:34:46;7.30;99.90
57652;DHT22;43480;53.116;6.734;2024-03-02T08:37:12;7.40;99.90
57652;DHT22;43480;53.116;6.734;2024-03-02T08:39:37;7.50;99.90
57652;DHT22;43480;53.116;6.734;2024-03-02T08:42:03;7.70;99.90
57652;DHT22;43480;53.116;6.734;2024-03-02T08:44:30;7.80;99.90
57652;DHT22;43480;53.116;6.734;2024-03-02T08:46:55;7.90;99.90
57652;DHT22;43480;53.116;6.734;2024-03-02T08:49:21;7.90;99.90
57652;DHT22;43480;53.116;6.734;2024-03-02T08:51:47;8.00;99.90
57652;DHT22;43480;53.116;6.734;2024-03-02T08:54:21;8.10;99.90
57652;DHT22;43480;53.116;6.734;2024-03-02T08:56:47;8.20;99.90
57652;DHT22;43480;53.116;6.734;2024-03-02T08:59:13;8.20;99.90
57652;DHT22;43480;53.116;6.734;2024-03-02T09:01:39;8.30;99.90
57652;DHT22;43480;53.116;6.734;2024-03-02T09:04:07;8.40;99.90
57652;DHT22;43480;53.116;6.734;2024-03-02T09:06:34;8.50;99.90
57652;DHT22;43480;53.116;6.734;2024-03-02T09:09:00;8.50;99.90
57652;DHT22;43480;53.116;6.734;2024-03-02T09:11:26;8.60;99.90
57652;DHT22;43480;53.116;6.734;2024-03-02T09:13:52;8.70;99.90
57652;DHT22;43480;53.116;6.734;2024-03-02T09:16:18;8.90;99.90
57652;DHT22;43480;53.116;6.734;2024-03-02T09:18:45;9.00;99.90
57652;DHT22;43480;53.116;6.734;2024-03-02T09:21:10;9.20;99.90
57652;DHT22;43480;53.116;6.734;2024-03-02T09:23:36;9.30;99.90
57652;DHT22;43480;53.116;6.734;2024-03-02T09:26:01;9.40;99.90
57652;DHT22;43480;53.116;6.734;2024-03-02T09:28:28;9.40;99.90
57652;DHT22;43480;53.116;6.734;2024-03-02T09:30:54;9.50;99.90
57652;DHT22;43480;53.116;6.734;2024-03-02T09:33:20;9.60;99.90
57652;DHT22;43480;53.116;6.734;2024-03-02T09:35:46;9.70;99.90
57652;DHT22;43480;53.116;6.734;2024-03-02T09:38:11;9.80;99.90
57652;DHT22;43480;53.116;6.734;2024-03-02T09:40:37;9.80;99.90
57652;DHT22;43480;53.116;6.734;2024-03-02T09:43:03;9.80;99.90
57652;DHT22;43480;53.116;6.734;2024-03-02T09:45:29;9.90;99.90
57652;DHT22;43480;53.116;6.734;2024-03-02T09:47:55;9.90;99.90
57652;DHT22;43480;53.116;6.734;2024-03-02T09:50:21;10.00;99.90
57652;DHT22;43480;53.116;6.734;2024-03-02T09:52:48;10.00;99.90
57652;DHT22;43480;53.116;6.734;2024-03-02T09:55:15;10.10;99.90
57652;DHT22;43480;53.116;6.734;2024-03-02T09:57:42;10.20;99.90
57652;DHT22;43480;53.116;6.734;2024-03-02T10:00:08;10.40;99.90
57652;DHT22;43480;53.116;6.734;2024-03-02T10:02:34;10.50;99.90
57652;DHT22;43480;53.116;6.734;2024-03-02T10:05:00;10.70;99.90
57652;DHT22;43480;53.116;6.734;2024-03-02T10:07:25;10.80;99.90
57652;DHT22;43480;53.116;6.734;2024-03-02T10:09:51;10.90;99.90
57652;DHT22;43480;53.116;6.734;2024-03-02T10:12:18;10.80;99.90
57652;DHT22;43480;53.116;6.734;2024-03-02T10:14:44;10.80;99.90
57652;DHT22;43480;53.116;6.734;2024-03-02T10:17:12;10.70;99.90
57652;DHT22;43480;53.116;6.734;2024-03-02T10:19:38;10.70;99.90
57652;DHT22;43480;53.116;6.734;2024-03-02T10:22:06;10.60;99.90
57652;DHT22;43480;53.116;6.734;2024-03-02T10:24:42;10.70;99.90
57652;DHT22;43480;53.116;6.734;2024-03-02T10:27:16;10.80;99.90
57652;DHT22;43480;53.116;6.734;2024-03-02T10:29:46;11.00;99.90
57652;DHT22;43480;53.116;6.734;2024-03-02T10:32:12;11.00;99.90
57652;DHT22;43480;53.116;6.734;2024-03-02T10:34:39;10.90;99.90
57652;DHT22;43480;53.116;6.734;2024-03-02T10:37:06;10.80;99.90
57652;DHT22;43480;53.116;6.734;2024-03-02T10:39:34;10.80;99.90
57652;DHT22;43480;53.116;6.734;2024-03-02T10:42:02;10.80;99.90
57652;DHT22;43480;53.116;6.734;2024-03-02T10:44:30;11.00;99.90
57652;DHT22;43480;53.116;6.734;2024-03-02T10:46:56;11.10;99.90
57652;DHT22;43480;53.116;6.734;2024-03-02T10:49:23;11.20;99.90
57652;DHT22;43480;53.116;6.734;2024-03-02T10:51:50;11.20;99.90
57652;DHT22;43480;53.116;6.734;2024-03-02T10:54:16;11.10;99.90
57652;DHT22;43480;53.116;6.734;2024-03-02T10:56:43;11.20;99.90
57652;DHT22;43480;53.116;6.734;2024-03-02T11:01:39;11.30;99.90
57652;DHT22;43480;53.116;6.734;2024-03-02T11:04:08;11.40;99.90
57652;DHT22;43480;53.116;6.734;2024-03-02T11:06:35;11.50;99.90
57652;DHT22;43480;53.116;6.734;2024-03-02T11:09:07;11.70;99.90
57652;DHT22;43480;53.116;6.734;2024-03-02T11:11:43;11.90;99.90
57652;DHT22;43480;53.116;6.734;2024-03-02T11:14:14;12.00;99.90
57652;DHT22;43480;53.116;6.734;2024-03-02T11:16:42;12.10;99.90
57652;DHT22;43480;53.116;6.734;2024-03-02T11:19:11;12.30;99.90
57652;DHT22;43480;53.116;6.734;2024-03-02T11:21:38;12.30;99.90
57652;DHT22;43480;53.116;6.734;2024-03-02T11:26:53;12.50;99.90
57652;DHT22;43480;53.116;6.734;2024-03-02T11:32:17;12.70;99.90
57652;DHT22;43480;53.116;6.734;2024-03-02T11:34:45;12.80;99.90
57652;DHT22;43480;53.116;6.734;2024-03-02T11:37:16;12.90;99.90
57652;DHT22;43480;53.116;6.734;2024-03-02T11:39:44;13.10;99.90
57652;DHT22;43480;53.116;6.734;2024-03-02T11:42:11;13.30;99.90
57652;DHT22;43480;53.116;6.734;2024-03-02T11:44:38;13.50;99.90
57652;DHT22;43480;53.116;6.734;2024-03-02T11:47:08;13.60;99.90
57652;DHT22;43480;53.116;6.734;2024-03-02T11:49:51;13.60;99.90
57652;DHT22;43480;53.116;6.734;2024-03-02T11:52:17;13.60;99.90
57652;DHT22;43480;53.116;6.734;2024-03-02T11:54:45;13.60;99.90
57652;DHT22;43480;53.116;6.734;2024-03-02T11:57:21;13.60;99.90
57652;DHT22;43480;53.116;6.734;2024-03-02T11:59:49;13.70;99.90
57652;DHT22;43480;53.116;6.734;2024-03-02T12:02:24;13.70;99.90
57652;DHT22;43480;53.116;6.734;2024-03-02T12:04:50;13.90;99.90
57652;DHT22;43480;53.116;6.734;2024-03-02T12:07:22;13.90;99.90
57652;DHT22;43480;53.116;6.734;2024-03-02T12:09:49;14.00;99.90
57652;DHT22;43480;53.116;6.734;2024-03-02T12:12:24;14.00;99.90
57652;DHT22;43480;53.116;6.734;2024-03-02T12:14:51;14.10;99.90
57652;DHT22;43480;53.116;6.734;2024-03-02T12:17:18;14.20;99.90
57652;DHT22;43480;53.116;6.734;2024-03-02T12:19:44;14.30;99.90
57652;DHT22;43480;53.116;6.734;2024-03-02T12:22:11;14.40;99.90
57652;DHT22;43480;53.116;6.734;2024-03-02T12:24:37;14.40;99.90
57652;DHT22;43480;53.116;6.734;2024-03-02T12:27:03;14.50;99.90
57652;DHT22;43480;53.116;6.734;2024-03-02T12:29:30;14.50;99.90
57652;DHT22;43480;53.116;6.734;2024-03-02T12:31:56;14.60;99.90
57652;DHT22;43480;53.116;6.734;2024-03-02T12:34:22;14.60;99.90
57652;DHT22;43480;53.116;6.734;2024-03-02T12:36:48;14.60;99.90
57652;DHT22;43480;53.116;6.734;2024-03-02T12:39:21;14.40;99.90
57652;DHT22;43480;53.116;6.734;2024-03-02T12:41:50;14.30;99.90
57652;DHT22;43480;53.116;6.734;2024-03-02T12:44:17;14.30;99.90
57652;DHT22;43480;53.116;6.734;2024-03-02T12:46:43;14.10;99.90
57652;DHT22;43480;53.116;6.734;2024-03-02T12:49:11;13.80;99.90
57652;DHT22;43480;53.116;6.734;2024-03-02T12:51:39;13.80;99.90
57652;DHT22;43480;53.116;6.734;2024-03-02T12:54:07;13.90;99.90
57652;DHT22;43480;53.116;6.734;2024-03-02T12:56:33;14.10;99.90
57652;DHT22;43480;53.116;6.734;2024-03-02T12:58:59;14.30;99.90
57652;DHT22;43480;53.116;6.734;2024-03-02T13:01:25;14.40;99.90
57652;DHT22;43480;53.116;6.734;2024-03-02T13:03:52;14.40;99.90
57652;DHT22;43480;53.116;6.734;2024-03-02T13:06:18;14.40;99.90
57652;DHT22;43480;53.116;6.734;2024-03-02T13:08:45;14.50;99.90
57652;DHT22;43480;53.116;6.734;2024-03-02T13:11:12;14.50;99.90
57652;DHT22;43480;53.116;6.734;2024-03-02T13:13:39;14.60;99.90
57652;DHT22;43480;53.116;6.734;2024-03-02T13:16:12;14.60;99.90
57652;DHT22;43480;53.116;6.734;2024-03-02T13:18:41;14.40;99.90
57652;DHT22;43480;53.116;6.734;2024-03-02T13:21:10;14.40;99.90
57652;DHT22;43480;53.116;6.734;2024-03-02T13:23:36;14.30;99.90
57652;DHT22;43480;53.116;6.734;2024-03-02T13:26:02;14.20;99.90
57652;DHT22;43480;53.116;6.734;2024-03-02T13:28:28;14.20;99.90
57652;DHT22;43480;53.116;6.734;2024-03-02T13:30:53;14.10;99.90
57652;DHT22;43480;53.116;6.734;2024-03-02T13:33:19;14.10;99.90
57652;DHT22;43480;53.116;6.734;2024-03-02T13:35:49;14.00;99.90
57652;DHT22;43480;53.116;6.734;2024-03-02T13:38:17;13.80;99.90
57652;DHT22;43480;53.116;6.734;2024-03-02T13:40:43;13.70;99.90
57652;DHT22;43480;53.116;6.734;2024-03-02T13:43:09;13.70;99.90
57652;DHT22;43480;53.116;6.734;2024-03-02T13:45:34;13.60;99.90
57652;DHT22;43480;53.116;6.734;2024-03-02T13:48:02;13.60;99.90
57652;DHT22;43480;53.116;6.734;2024-03-02T13:50:28;13.70;99.90
57652;DHT22;43480;53.116;6.734;2024-03-02T13:52:55;13.80;99.90
57652;DHT22;43480;53.116;6.734;2024-03-02T13:55:22;13.80;99.90
57652;DHT22;43480;53.116;6.734;2024-03-02T13:57:48;13.80;99.90
57652;DHT22;43480;53.116;6.734;2024-03-02T14:00:16;13.70;99.90
57652;DHT22;43480;53.116;6.734;2024-03-02T14:02:43;13.70;99.90
57652;DHT22;43480;53.116;6.734;2024-03-02T14:05:08;13.70;99.90
57652;DHT22;43480;53.116;6.734;2024-03-02T14:07:41;13.70;99.90
57652;DHT22;43480;53.116;6.734;2024-03-02T14:10:07;13.70;99.90
57652;DHT22;43480;53.116;6.734;2024-03-02T14:12:33;13.70;99.90
57652;DHT22;43480;53.116;6.734;2024-03-02T14:14:59;13.70;99.90
57652;DHT22;43480;53.116;6.734;2024-03-02T14:17:27;13.60;99.90
57652;DHT22;43480;53.116;6.734;2024-03-02T14:19:53;13.60;99.90
57652;DHT22;43480;53.116;6.734;2024-03-02T14:22:19;13.50;99.90
57652;DHT22;43480;53.116;6.734;2024-03-02T14:24:45;13.50;99.90
57652;DHT22;43480;53.116;6.734;2024-03-02T14:27:11;13.40;99.90
57652;DHT22;43480;53.116;6.734;2024-03-02T14:29:37;13.40;99.90
57652;DHT22;43480;53.116;6.734;2024-03-02T14:32:05;13.40;99.90
57652;DHT22;43480;53.116;6.734;2024-03-02T14:34:31;13.50;99.90
57652;DHT22;43480;53.116;6.734;2024-03-02T14:36:56;13.60;99.90
57652;DHT22;43480;53.116;6.734;2024-03-02T14:39:22;13.70;99.90
57652;DHT22;43480;53.116;6.734;2024-03-02T14:41:48;13.90;99.90
57652;DHT22;43480;53.116;6.734;2024-03-02T14:44:14;14.10;99.90
57652;DHT22;43480;53.116;6.734;2024-03-02T14:46:40;14.20;99.90
57652;DHT22;43480;53.116;6.734;2024-03-02T14:49:07;14.30;99.90
57652;DHT22;43480;53.116;6.734;2024-03-02T14:51:33;14.20;99.90
57652;DHT22;43480;53.116;6.734;2024-03-02T14:53:58;14.20;99.90
57652;DHT22;43480;53.116;6.734;2024-03-02T14:56:24;14.20;99.90
57652;DHT22;43480;53.116;6.734;2024-03-02T14:58:50;14.30;99.90
57652;DHT22;43480;53.116;6.734;2024-03-02T15:01:16;14.40;99.90
57652;DHT22;43480;53.116;6.734;2024-03-02T15:03:43;14.70;99.90
57652;DHT22;43480;53.116;6.734;2024-03-02T15:06:09;15.00;99.90
57652;DHT22;43480;53.116;6.734;2024-03-02T15:08:35;15.30;99.90
57652;DHT22;43480;53.116;6.734;2024-03-02T15:11:01;15.60;99.90
57652;DHT22;43480;53.116;6.734;2024-03-02T15:13:29;15.70;99.90
57652;DHT22;43480;53.116;6.734;2024-03-02T15:15:54;15.90;99.90
57652;DHT22;43480;53.116;6.734;2024-03-02T15:18:20;16.20;99.90
57652;DHT22;43480;53.116;6.734;2024-03-02T15:20:46;16.20;99.90
57652;DHT22;43480;53.116;6.734;2024-03-02T15:23:12;15.90;99.90
57652;DHT22;43480;53.116;6.734;2024-03-02T15:25:37;15.60;99.90
57652;DHT22;43480;53.116;6.734;2024-03-02T15:28:03;15.10;99.90
57652;DHT22;43480;53.116;6.734;2024-03-02T15:30:29;14.80;99.90
57652;DHT22;43480;53.116;6.734;2024-03-02T15:32:54;14.40;99.90
57652;DHT22;43480;53.116;6.734;2024-03-02T15:35:20;14.10;99.90
57652;DHT22;43480;53.116;6.734;2024-03-02T15:37:46;13.90;99.90
57652;DHT22;43480;53.116;6.734;2024-03-02T15:40:11;13.70;99.90
57652;DHT22;43480;53.116;6.734;2024-03-02T15:42:37;13.50;99.90
57652;DHT22;43480;53.116;6.734;2024-03-02T15:45:03;13.30;99.90
57652;DHT22;43480;53.116;6.734;2024-03-02T15:47:30;13.10;99.90